sensor_id;sensor_type;location;lat;lon;timestamp;P1;durP1;ratioP1;P2;durP2;ratioP2
69956;SDS011;57283;54.816;9.482;2024-01-10T00:02:09;8.67;;;4.10;;
69956;SDS011;57283;54.816;9.482;2024-01-10T00:04:37;10.68;;;3.78;;
69956;SDS011;57283;54.816;9.482;2024-01-10T00:07:05;10.80;;;3.97;;
69956;SDS011;57283;54.816;9.482;2024-01-10T00:09:33;9.45;;;3.50;;
69956;SDS011;57283;54.816;9.482;2024-01-10T00:12:00;10.60;;;3.90;;
69956;SDS011;57283;54.816;9.482;2024-01-10T00:14:28;10.63;;;3.23;;
69956;SDS011;57283;54.816;9.482;2024-01-10T00:16:57;9.55;;;3.95;;
69956;SDS011;57283;54.816;9.482;2024-01-10T00:19:25;9.57;;;4.03;;
69956;SDS011;57283;54.816;9.482;2024-01-10T00:21:52;11.77;;;4.07;;
69956;SDS011;57283;54.816;9.482;2024-01-10T00:24:20;10.25;;;3.97;;
69956;SDS011;57283;54.816;9.482;2024-01-10T00:26:47;10.63;;;4.27;;
69956;SDS011;57283;54.816;9.482;2024-01-10T00:29:15;8.63;;;3.53;;
69956;SDS011;57283;54.816;9.482;2024-01-10T00:31:43;9.23;;;3.63;;
69956;SDS011;57283;54.816;9.482;2024-01-10T00:34:12;11.75;;;4.28;;
69956;SDS011;57283;54.816;9.482;2024-01-10T00:36:39;10.55;;;4.00;;
69956;SDS011;57283;54.816;9.482;2024-01-10T00:39:07;10.90;;;4.33;;
69956;SDS011;57283;54.816;9.482;2024-01-10T00:41:35;13.77;;;4.97;;
69956;SDS011;57283;54.816;9.482;2024-01-10T00:44:02;12.30;;;4.03;;
69956;SDS011;57283;54.816;9.482;2024-01-10T00:46:30;10.77;;;3.97;;
69956;SDS011;57283;54.816;9.482;2024-01-10T00:48:57;11.57;;;4.68;;
69956;SDS011;57283;54.816;9.482;2024-01-10T00:51:26;11.23;;;4.37;;
69956;SDS011;57283;54.816;9.482;2024-01-10T00:53:54;13.10;;;4.70;;
69956;SDS011;57283;54.816;9.482;2024-01-10T00:56:22;16.70;;;5.00;;
69956;SDS011;57283;54.816;9.482;2024-01-10T00:58:49;12.05;;;4.10;;
69956;SDS011;57283;54.816;9.482;2024-01-10T01:01:17;9.43;;;4.10;;
69956;SDS011;57283;54.816;9.482;2024-01-10T01:03:45;9.90;;;4.50;;
69956;SDS011;57283;54.816;9.482;2024-01-10T01:06:12;10.93;;;4.57;;
69956;SDS011;57283;54.816;9.482;2024-01-10T01:08:41;11.52;;;4.22;;
69956;SDS011;57283;54.816;9.482;2024-01-10T01:11:09;14.90;;;4.60;;
69956;SDS011;57283;54.816;9.482;2024-01-10T01:13:37;11.95;;;4.25;;
69956;SDS011;57283;54.816;9.482;2024-01-10T01:16:05;12.63;;;4.57;;
69956;SDS011;57283;54.816;9.482;2024-01-10T01:18:32;9.98;;;4.10;;
69956;SDS011;57283;54.816;9.482;2024-01-10T01:21:00;10.82;;;4.60;;
69956;SDS011;57283;54.816;9.482;2024-01-10T01:23:28;13.07;;;4.90;;
69956;SDS011;57283;54.816;9.482;2024-01-10T01:26:08;12.57;;;4.63;;
69956;SDS011;57283;54.816;9.482;2024-01-10T01:28:36;12.53;;;4.50;;
69956;SDS011;57283;54.816;9.482;2024-01-10T01:31:04;11.20;;;4.20;;
69956;SDS011;57283;54.816;9.482;2024-01-10T01:33:31;10.93;;;4.43;;
69956;SDS011;57283;54.816;9.482;2024-01-10T01:35:59;12.18;;;5.72;;
69956;SDS011;57283;54.816;9.482;2024-01-10T01:38:27;11.45;;;4.70;;
69956;SDS011;57283;54.816;9.482;2024-01-10T01:40:54;11.97;;;4.13;;
69956;SDS011;57283;54.816;9.482;2024-01-10T01:43:24;12.02;;;4.50;;
69956;SDS011;57283;54.816;9.482;2024-01-10T01:45:52;13.77;;;4.80;;
69956;SDS011;57283;54.816;9.482;2024-01-10T01:48:20;16.45;;;5.50;;
69956;SDS011;57283;54.816;9.482;2024-01-10T01:50:49;13.45;;;4.95;;
69956;SDS011;57283;54.816;9.482;2024-01-10T01:53:18;10.77;;;4.73;;
69956;SDS011;57283;54.816;9.482;2024-01-10T01:55:46;13.35;;;4.68;;
69956;SDS011;57283;54.816;9.482;2024-01-10T01:58:14;13.88;;;5.28;;
69956;SDS011;57283;54.816;9.482;2024-01-10T02:00:43;13.48;;;5.68;;
69956;SDS011;57283;54.816;9.482;2024-01-10T02:03:11;13.73;;;5.18;;
69956;SDS011;57283;54.816;9.482;2024-01-10T02:05:39;16.50;;;5.90;;
69956;SDS011;57283;54.816;9.482;2024-01-10T02:08:07;13.45;;;5.05;;
69956;SDS011;57283;54.816;9.482;2024-01-10T02:10:35;13.23;;;4.95;;
69956;SDS011;57283;54.816;9.482;2024-01-10T02:13:03;12.32;;;4.75;;
69956;SDS011;57283;54.816;9.482;2024-01-10T02:15:30;11.63;;;5.25;;
69956;SDS011;57283;54.816;9.482;2024-01-10T02:18:00;12.07;;;4.83;;
69956;SDS011;57283;54.816;9.482;2024-01-10T02:20:27;12.75;;;4.78;;
69956;SDS011;57283;54.816;9.482;2024-01-10T02:22:55;15.00;;;5.00;;
69956;SDS011;57283;54.816;9.482;2024-01-10T02:25:24;13.20;;;5.28;;
69956;SDS011;57283;54.816;9.482;2024-01-10T02:27:52;14.63;;;4.45;;
69956;SDS011;57283;54.816;9.482;2024-01-10T02:30:19;13.80;;;5.33;;
69956;SDS011;57283;54.816;9.482;2024-01-10T02:32:47;14.55;;;4.70;;
69956;SDS011;57283;54.816;9.482;2024-01-10T02:35:15;13.60;;;4.93;;
69956;SDS011;57283;54.816;9.482;2024-01-10T02:37:42;12.15;;;4.72;;
69956;SDS011;57283;54.816;9.482;2024-01-10T02:40:11;11.10;;;4.85;;
69956;SDS011;57283;54.816;9.482;2024-01-10T02:42:40;9.03;;;4.57;;
69956;SDS011;57283;54.816;9.482;2024-01-10T02:45:09;15.30;;;6.07;;
69956;SDS011;57283;54.816;9.482;2024-01-10T02:47:36;12.00;;;5.30;;
69956;SDS011;57283;54.816;9.482;2024-01-10T02:50:05;12.32;;;5.03;;
69956;SDS011;57283;54.816;9.482;2024-01-10T02:52:33;13.27;;;5.22;;
69956;SDS011;57283;54.816;9.482;2024-01-10T02:55:00;12.30;;;5.03;;
69956;SDS011;57283;54.816;9.482;2024-01-10T02:57:28;14.70;;;5.95;;
69956;SDS011;57283;54.816;9.482;2024-01-10T02:59:57;16.40;;;5.18;;
69956;SDS011;57283;54.816;9.482;2024-01-10T03:02:24;13.23;;;5.25;;
69956;SDS011;57283;54.816;9.482;2024-01-10T03:04:52;15.20;;;5.88;;
69956;SDS011;57283;54.816;9.482;2024-01-10T03:07:20;15.83;;;6.13;;
69956;SDS011;57283;54.816;9.482;2024-01-10T03:09:51;12.95;;;5.05;;
69956;SDS011;57283;54.816;9.482;2024-01-10T03:12:18;11.90;;;5.28;;
69956;SDS011;57283;54.816;9.482;2024-01-10T03:14:46;15.55;;;5.95;;
69956;SDS011;57283;54.816;9.482;2024-01-10T03:17:15;13.85;;;6.13;;
69956;SDS011;57283;54.816;9.482;2024-01-10T03:19:43;12.83;;;4.80;;
69956;SDS011;57283;54.816;9.482;2024-01-10T03:22:10;13.43;;;5.90;;
69956;SDS011;57283;54.816;9.482;2024-01-10T03:24:38;17.25;;;5.82;;
69956;SDS011;57283;54.816;9.482;2024-01-10T03:27:06;15.18;;;5.82;;
69956;SDS011;57283;54.816;9.482;2024-01-10T03:29:33;14.60;;;6.07;;
69956;SDS011;57283;54.816;9.482;2024-01-10T03:32:01;14.70;;;5.77;;
69956;SDS011;57283;54.816;9.482;2024-01-10T03:34:30;12.20;;;5.57;;
69956;SDS011;57283;54.816;9.482;2024-01-10T03:36:58;15.27;;;6.15;;
69956;SDS011;57283;54.816;9.482;2024-01-10T03:39:25;16.40;;;6.15;;
69956;SDS011;57283;54.816;9.482;2024-01-10T03:41:53;13.10;;;5.85;;
69956;SDS011;57283;54.816;9.482;2024-01-10T03:44:21;17.23;;;5.80;;
69956;SDS011;57283;54.816;9.482;2024-01-10T03:46:48;14.73;;;6.55;;
69956;SDS011;57283;54.816;9.482;2024-01-10T03:49:16;14.43;;;5.95;;
69956;SDS011;57283;54.816;9.482;2024-01-10T03:51:45;14.88;;;5.72;;
69956;SDS011;57283;54.816;9.482;2024-01-10T03:54:13;13.45;;;5.72;;
69956;SDS011;57283;54.816;9.482;2024-01-10T03:56:40;12.43;;;5.50;;
69956;SDS011;57283;54.816;9.482;2024-01-10T03:59:08;14.63;;;5.35;;
69956;SDS011;57283;54.816;9.482;2024-01-10T04:01:36;11.77;;;5.47;;
69956;SDS011;57283;54.816;9.482;2024-01-10T04:04:05;12.88;;;5.35;;
69956;SDS011;57283;54.816;9.482;2024-01-10T04:06:33;12.43;;;4.97;;
69956;SDS011;57283;54.816;9.482;2024-01-10T04:09:02;13.70;;;5.43;;
69956;SDS011;57283;54.816;9.482;2024-01-10T04:11:30;12.43;;;5.43;;
69956;SDS011;57283;54.816;9.482;2024-01-10T04:13:57;14.98;;;5.88;;
69956;SDS011;57283;54.816;9.482;2024-01-10T04:16:25;13.00;;;5.53;;
69956;SDS011;57283;54.816;9.482;2024-01-10T04:18:53;17.05;;;6.10;;
69956;SDS011;57283;54.816;9.482;2024-01-10T04:21:22;18.77;;;6.70;;
69956;SDS011;57283;54.816;9.482;2024-01-10T04:23:49;12.10;;;5.38;;
69956;SDS011;57283;54.816;9.482;2024-01-10T04:26:19;14.38;;;5.95;;
69956;SDS011;57283;54.816;9.482;2024-01-10T04:28:47;13.00;;;5.43;;
69956;SDS011;57283;54.816;9.482;2024-01-10T04:31:15;14.00;;;5.60;;
69956;SDS011;57283;54.816;9.482;2024-01-10T04:33:43;16.33;;;5.73;;
69956;SDS011;57283;54.816;9.482;2024-01-10T04:36:10;12.45;;;5.28;;
69956;SDS011;57283;54.816;9.482;2024-01-10T04:38:38;12.88;;;5.38;;
69956;SDS011;57283;54.816;9.482;2024-01-10T04:41:06;12.25;;;5.03;;
69956;SDS011;57283;54.816;9.482;2024-01-10T04:43:35;12.05;;;5.35;;
69956;SDS011;57283;54.816;9.482;2024-01-10T04:46:03;10.47;;;4.50;;
69956;SDS011;57283;54.816;9.482;2024-01-10T04:48:30;9.98;;;4.20;;
69956;SDS011;57283;54.816;9.482;2024-01-10T04:50:58;12.35;;;4.47;;
69956;SDS011;57283;54.816;9.482;2024-01-10T04:53:25;7.47;;;3.17;;
69956;SDS011;57283;54.816;9.482;2024-01-10T04:55:53;8.75;;;3.03;;
69956;SDS011;57283;54.816;9.482;2024-01-10T04:58:21;6.87;;;2.57;;
69956;SDS011;57283;54.816;9.482;2024-01-10T05:00:50;8.50;;;3.42;;
69956;SDS011;57283;54.816;9.482;2024-01-10T05:03:17;9.35;;;3.30;;
69956;SDS011;57283;54.816;9.482;2024-01-10T05:05:45;8.15;;;2.90;;
69956;SDS011;57283;54.816;9.482;2024-01-10T05:08:13;7.88;;;3.50;;
69956;SDS011;57283;54.816;9.482;2024-01-10T05:10:43;8.37;;;3.17;;
69956;SDS011;57283;54.816;9.482;2024-01-10T05:13:19;9.95;;;3.28;;
69956;SDS011;57283;54.816;9.482;2024-01-10T05:15:47;6.40;;;2.95;;
69956;SDS011;57283;54.816;9.482;2024-01-10T05:18:16;8.02;;;3.30;;
69956;SDS011;57283;54.816;9.482;2024-01-10T05:20:44;8.45;;;3.47;;
69956;SDS011;57283;54.816;9.482;2024-01-10T05:23:11;9.13;;;3.87;;
69956;SDS011;57283;54.816;9.482;2024-01-10T05:25:39;9.70;;;3.50;;
69956;SDS011;57283;54.816;9.482;2024-01-10T05:28:07;10.65;;;3.90;;
69956;SDS011;57283;54.816;9.482;2024-01-10T05:30:34;10.75;;;4.40;;
69956;SDS011;57283;54.816;9.482;2024-01-10T05:33:02;8.85;;;3.53;;
69956;SDS011;57283;54.816;9.482;2024-01-10T05:35:32;10.27;;;4.23;;
69956;SDS011;57283;54.816;9.482;2024-01-10T05:38:03;9.30;;;4.30;;
69956;SDS011;57283;54.816;9.482;2024-01-10T05:40:30;11.60;;;4.50;;
69956;SDS011;57283;54.816;9.482;2024-01-10T05:42:58;10.82;;;4.35;;
69956;SDS011;57283;54.816;9.482;2024-01-10T05:45:26;10.88;;;4.30;;
69956;SDS011;57283;54.816;9.482;2024-01-10T05:47:54;10.70;;;4.23;;
69956;SDS011;57283;54.816;9.482;2024-01-10T05:50:22;11.65;;;4.57;;
69956;SDS011;57283;54.816;9.482;2024-01-10T05:52:51;8.57;;;4.18;;
69956;SDS011;57283;54.816;9.482;2024-01-10T05:55:19;9.35;;;4.80;;
69956;SDS011;57283;54.816;9.482;2024-01-10T05:57:47;9.73;;;4.65;;
69956;SDS011;57283;54.816;9.482;2024-01-10T06:00:15;10.53;;;4.40;;
69956;SDS011;57283;54.816;9.482;2024-01-10T06:02:43;12.07;;;4.75;;
69956;SDS011;57283;54.816;9.482;2024-01-10T06:05:10;9.88;;;4.47;;
69956;SDS011;57283;54.816;9.482;2024-01-10T06:07:38;7.53;;;3.13;;
69956;SDS011;57283;54.816;9.482;2024-01-10T06:10:08;8.13;;;3.13;;
69956;SDS011;57283;54.816;9.482;2024-01-10T06:12:36;7.37;;;2.70;;
69956;SDS011;57283;54.816;9.482;2024-01-10T06:15:05;7.05;;;3.00;;
69956;SDS011;57283;54.816;9.482;2024-01-10T06:17:33;8.02;;;3.45;;
69956;SDS011;57283;54.816;9.482;2024-01-10T06:20:01;7.43;;;3.05;;
69956;SDS011;57283;54.816;9.482;2024-01-10T06:22:30;9.10;;;3.20;;
69956;SDS011;57283;54.816;9.482;2024-01-10T06:24:58;8.27;;;3.37;;
69956;SDS011;57283;54.816;9.482;2024-01-10T06:27:26;6.65;;;2.78;;
69956;SDS011;57283;54.816;9.482;2024-01-10T06:29:54;7.90;;;3.42;;
69956;SDS011;57283;54.816;9.482;2024-01-10T06:32:22;7.82;;;2.90;;
69956;SDS011;57283;54.816;9.482;2024-01-10T06:34:49;8.02;;;3.25;;
69956;SDS011;57283;54.816;9.482;2024-01-10T06:37:17;7.40;;;3.00;;
69956;SDS011;57283;54.816;9.482;2024-01-10T06:39:45;7.28;;;3.10;;
69956;SDS011;57283;54.816;9.482;2024-01-10T06:42:13;6.90;;;3.33;;
69956;SDS011;57283;54.816;9.482;2024-01-10T06:44:42;6.40;;;2.75;;
69956;SDS011;57283;54.816;9.482;2024-01-10T06:47:10;6.03;;;2.90;;
69956;SDS011;57283;54.816;9.482;2024-01-10T06:49:37;6.03;;;2.30;;
69956;SDS011;57283;54.816;9.482;2024-01-10T06:52:05;6.22;;;2.22;;
69956;SDS011;57283;54.816;9.482;2024-01-10T06:54:34;6.30;;;2.97;;
69956;SDS011;57283;54.816;9.482;2024-01-10T06:57:02;5.90;;;2.50;;
69956;SDS011;57283;54.816;9.482;2024-01-10T06:59:29;5.55;;;2.35;;
69956;SDS011;57283;54.816;9.482;2024-01-10T07:01:59;6.00;;;2.20;;
69956;SDS011;57283;54.816;9.482;2024-01-10T07:04:28;6.50;;;2.30;;
69956;SDS011;57283;54.816;9.482;2024-01-10T07:06:55;5.50;;;2.42;;
69956;SDS011;57283;54.816;9.482;2024-01-10T07:09:23;6.22;;;2.55;;
69956;SDS011;57283;54.816;9.482;2024-01-10T07:11:50;5.38;;;2.08;;
69956;SDS011;57283;54.816;9.482;2024-01-10T07:14:17;5.50;;;2.20;;
69956;SDS011;57283;54.816;9.482;2024-01-10T07:16:45;5.55;;;2.28;;
69956;SDS011;57283;54.816;9.482;2024-01-10T07:19:15;4.97;;;1.52;;
69956;SDS011;57283;54.816;9.482;2024-01-10T07:21:43;4.32;;;1.63;;
69956;SDS011;57283;54.816;9.482;2024-01-10T07:24:10;5.28;;;2.35;;
69956;SDS011;57283;54.816;9.482;2024-01-10T07:26:38;5.30;;;2.10;;
69956;SDS011;57283;54.816;9.482;2024-01-10T07:29:06;7.00;;;2.47;;
69956;SDS011;57283;54.816;9.482;2024-01-10T07:31:35;6.35;;;2.30;;
69956;SDS011;57283;54.816;9.482;2024-01-10T07:34:03;7.35;;;2.40;;
69956;SDS011;57283;54.816;9.482;2024-01-10T07:36:36;5.93;;;2.40;;
69956;SDS011;57283;54.816;9.482;2024-01-10T07:39:08;5.87;;;2.07;;
69956;SDS011;57283;54.816;9.482;2024-01-10T07:41:36;6.25;;;2.20;;
69956;SDS011;57283;54.816;9.482;2024-01-10T07:44:04;7.28;;;2.42;;
69956;SDS011;57283;54.816;9.482;2024-01-10T07:46:32;5.32;;;2.38;;
69956;SDS011;57283;54.816;9.482;2024-01-10T07:49:00;5.68;;;2.00;;
69956;SDS011;57283;54.816;9.482;2024-01-10T07:51:28;6.20;;;2.40;;
69956;SDS011;57283;54.816;9.482;2024-01-10T07:53:57;6.10;;;2.20;;
69956;SDS011;57283;54.816;9.482;2024-01-10T07:56:25;5.70;;;2.40;;
69956;SDS011;57283;54.816;9.482;2024-01-10T07:58:53;5.78;;;2.40;;
69956;SDS011;57283;54.816;9.482;2024-01-10T08:01:21;7.03;;;3.20;;
69956;SDS011;57283;54.816;9.482;2024-01-10T08:03:49;6.53;;;2.40;;
69956;SDS011;57283;54.816;9.482;2024-01-10T08:06:17;5.10;;;2.13;;
69956;SDS011;57283;54.816;9.482;2024-01-10T08:08:55;6.82;;;2.58;;
69956;SDS011;57283;54.816;9.482;2024-01-10T08:11:24;6.07;;;2.22;;
69956;SDS011;57283;54.816;9.482;2024-01-10T08:13:52;5.90;;;2.28;;
69956;SDS011;57283;54.816;9.482;2024-01-10T08:16:20;4.50;;;1.70;;
69956;SDS011;57283;54.816;9.482;2024-01-10T08:18:47;4.70;;;1.98;;
69956;SDS011;57283;54.816;9.482;2024-01-10T08:21:15;5.95;;;2.67;;
69956;SDS011;57283;54.816;9.482;2024-01-10T08:23:43;5.72;;;2.03;;
69956;SDS011;57283;54.816;9.482;2024-01-10T08:26:11;5.10;;;2.30;;
69956;SDS011;57283;54.816;9.482;2024-01-10T08:28:40;6.27;;;2.60;;
69956;SDS011;57283;54.816;9.482;2024-01-10T08:31:09;5.93;;;2.38;;
69956;SDS011;57283;54.816;9.482;2024-01-10T08:33:36;5.72;;;2.22;;
69956;SDS011;57283;54.816;9.482;2024-01-10T08:36:06;6.15;;;2.30;;
69956;SDS011;57283;54.816;9.482;2024-01-10T08:38:34;5.30;;;2.50;;
69956;SDS011;57283;54.816;9.482;2024-01-10T08:41:02;5.33;;;2.33;;
69956;SDS011;57283;54.816;9.482;2024-01-10T08:43:30;6.32;;;2.40;;
69956;SDS011;57283;54.816;9.482;2024-01-10T08:45:59;6.82;;;2.72;;
69956;SDS011;57283;54.816;9.482;2024-01-10T08:48:27;5.88;;;2.20;;
69956;SDS011;57283;54.816;9.482;2024-01-10T08:50:54;6.60;;;2.47;;
69956;SDS011;57283;54.816;9.482;2024-01-10T08:53:22;5.07;;;2.27;;
69956;SDS011;57283;54.816;9.482;2024-01-10T08:55:51;5.10;;;2.15;;
69956;SDS011;57283;54.816;9.482;2024-01-10T08:58:18;4.28;;;2.00;;
69956;SDS011;57283;54.816;9.482;2024-01-10T09:00:46;5.20;;;1.92;;
69956;SDS011;57283;54.816;9.482;2024-01-10T09:03:15;5.20;;;1.90;;
69956;SDS011;57283;54.816;9.482;2024-01-10T09:05:43;5.37;;;2.27;;
69956;SDS011;57283;54.816;9.482;2024-01-10T09:08:27;5.72;;;2.00;;
69956;SDS011;57283;54.816;9.482;2024-01-10T09:10:55;5.30;;;2.10;;
69956;SDS011;57283;54.816;9.482;2024-01-10T09:13:23;4.70;;;1.75;;
69956;SDS011;57283;54.816;9.482;2024-01-10T09:15:50;5.15;;;2.22;;
69956;SDS011;57283;54.816;9.482;2024-01-10T09:18:19;5.27;;;2.10;;
69956;SDS011;57283;54.816;9.482;2024-01-10T09:20:47;5.07;;;1.90;;
69956;SDS011;57283;54.816;9.482;2024-01-10T09:23:15;5.60;;;2.03;;
69956;SDS011;57283;54.816;9.482;2024-01-10T09:25:43;5.18;;;2.00;;
69956;SDS011;57283;54.816;9.482;2024-01-10T09:28:10;5.35;;;2.20;;
69956;SDS011;57283;54.816;9.482;2024-01-10T09:30:38;6.13;;;2.53;;
69956;SDS011;57283;54.816;9.482;2024-01-10T09:33:08;4.93;;;1.98;;
69956;SDS011;57283;54.816;9.482;2024-01-10T09:35:37;5.93;;;2.28;;
69956;SDS011;57283;54.816;9.482;2024-01-10T09:38:05;6.40;;;2.13;;
69956;SDS011;57283;54.816;9.482;2024-01-10T09:40:33;6.90;;;2.40;;
69956;SDS011;57283;54.816;9.482;2024-01-10T09:43:01;4.80;;;1.70;;
69956;SDS011;57283;54.816;9.482;2024-01-10T09:45:29;4.78;;;1.90;;
69956;SDS011;57283;54.816;9.482;2024-01-10T09:47:58;5.57;;;2.35;;
69956;SDS011;57283;54.816;9.482;2024-01-10T09:50:26;5.53;;;2.08;;
69956;SDS011;57283;54.816;9.482;2024-01-10T09:52:57;5.00;;;2.20;;
69956;SDS011;57283;54.816;9.482;2024-01-10T09:55:28;4.87;;;2.10;;
69956;SDS011;57283;54.816;9.482;2024-01-10T09:57:57;5.15;;;2.47;;
69956;SDS011;57283;54.816;9.482;2024-01-10T10:00:24;5.93;;;2.42;;
69956;SDS011;57283;54.816;9.482;2024-01-10T10:02:53;5.60;;;2.50;;
69956;SDS011;57283;54.816;9.482;2024-01-10T10:05:21;5.15;;;1.88;;
69956;SDS011;57283;54.816;9.482;2024-01-10T10:07:50;5.13;;;2.20;;
69956;SDS011;57283;54.816;9.482;2024-01-10T10:10:21;6.68;;;2.42;;
69956;SDS011;57283;54.816;9.482;2024-01-10T10:12:49;5.75;;;2.30;;
69956;SDS011;57283;54.816;9.482;2024-01-10T10:15:19;5.95;;;2.22;;
69956;SDS011;57283;54.816;9.482;2024-01-10T10:17:48;7.05;;;2.92;;
69956;SDS011;57283;54.816;9.482;2024-01-10T10:20:19;5.57;;;2.30;;
69956;SDS011;57283;54.816;9.482;2024-01-10T10:23:00;5.97;;;2.63;;
69956;SDS011;57283;54.816;9.482;2024-01-10T10:25:30;6.13;;;2.70;;
69956;SDS011;57283;54.816;9.482;2024-01-10T10:27:59;5.45;;;2.08;;
69956;SDS011;57283;54.816;9.482;2024-01-10T10:30:27;7.47;;;3.17;;
69956;SDS011;57283;54.816;9.482;2024-01-10T10:32:55;7.93;;;3.20;;
69956;SDS011;57283;54.816;9.482;2024-01-10T10:35:23;7.88;;;2.97;;
69956;SDS011;57283;54.816;9.482;2024-01-10T10:38:04;7.47;;;2.35;;
69956;SDS011;57283;54.816;9.482;2024-01-10T10:40:36;4.43;;;1.55;;
69956;SDS011;57283;54.816;9.482;2024-01-10T10:43:04;5.38;;;2.40;;
69956;SDS011;57283;54.816;9.482;2024-01-10T10:45:32;5.30;;;2.07;;
69956;SDS011;57283;54.816;9.482;2024-01-10T10:48:01;5.57;;;2.33;;
69956;SDS011;57283;54.816;9.482;2024-01-10T10:50:31;5.40;;;2.00;;
69956;SDS011;57283;54.816;9.482;2024-01-10T10:53:02;5.65;;;1.95;;
69956;SDS011;57283;54.816;9.482;2024-01-10T10:55:31;6.38;;;2.40;;
69956;SDS011;57283;54.816;9.482;2024-01-10T10:58:02;6.50;;;2.03;;
69956;SDS011;57283;54.816;9.482;2024-01-10T11:00:37;5.15;;;2.08;;
69956;SDS011;57283;54.816;9.482;2024-01-10T11:03:05;6.25;;;2.25;;
69956;SDS011;57283;54.816;9.482;2024-01-10T11:05:34;4.38;;;1.70;;
69956;SDS011;57283;54.816;9.482;2024-01-10T11:08:02;5.93;;;2.33;;
69956;SDS011;57283;54.816;9.482;2024-01-10T11:10:32;4.63;;;1.93;;
69956;SDS011;57283;54.816;9.482;2024-01-10T11:13:08;5.07;;;2.20;;
69956;SDS011;57283;54.816;9.482;2024-01-10T11:15:47;5.97;;;2.00;;
69956;SDS011;57283;54.816;9.482;2024-01-10T11:18:27;4.68;;;1.90;;
69956;SDS011;57283;54.816;9.482;2024-01-10T11:21:01;4.60;;;1.80;;
69956;SDS011;57283;54.816;9.482;2024-01-10T11:23:37;4.43;;;1.60;;
69956;SDS011;57283;54.816;9.482;2024-01-10T11:26:06;4.10;;;1.60;;
69956;SDS011;57283;54.816;9.482;2024-01-10T11:28:37;5.28;;;1.85;;
69956;SDS011;57283;54.816;9.482;2024-01-10T11:31:05;4.65;;;1.70;;
69956;SDS011;57283;54.816;9.482;2024-01-10T11:33:34;3.90;;;1.50;;
69956;SDS011;57283;54.816;9.482;2024-01-10T11:36:06;4.80;;;1.57;;
69956;SDS011;57283;54.816;9.482;2024-01-10T11:38:32;4.22;;;1.50;;
69956;SDS011;57283;54.816;9.482;2024-01-10T11:41:00;3.70;;;1.35;;
69956;SDS011;57283;54.816;9.482;2024-01-10T11:43:30;4.80;;;1.77;;
69956;SDS011;57283;54.816;9.482;2024-01-10T11:46:02;3.92;;;1.25;;
69956;SDS011;57283;54.816;9.482;2024-01-10T11:48:31;3.47;;;1.20;;
69956;SDS011;57283;54.816;9.482;2024-01-10T11:50:59;4.07;;;1.40;;
69956;SDS011;57283;54.816;9.482;2024-01-10T11:53:40;3.60;;;1.40;;
69956;SDS011;57283;54.816;9.482;2024-01-10T11:56:09;3.85;;;1.23;;
69956;SDS011;57283;54.816;9.482;2024-01-10T11:58:51;3.65;;;1.40;;
69956;SDS011;57283;54.816;9.482;2024-01-10T12:01:21;3.17;;;1.20;;
69956;SDS011;57283;54.816;9.482;2024-01-10T12:03:49;3.90;;;1.33;;
69956;SDS011;57283;54.816;9.482;2024-01-10T12:06:38;3.40;;;1.05;;
69956;SDS011;57283;54.816;9.482;2024-01-10T12:09:06;3.30;;;1.02;;
69956;SDS011;57283;54.816;9.482;2024-01-10T12:11:35;3.20;;;1.05;;
69956;SDS011;57283;54.816;9.482;2024-01-10T12:14:05;3.80;;;1.20;;
69956;SDS011;57283;54.816;9.482;2024-01-10T12:16:35;3.83;;;1.00;;
69956;SDS011;57283;54.816;9.482;2024-01-10T12:19:02;3.70;;;1.23;;
69956;SDS011;57283;54.816;9.482;2024-01-10T12:21:31;3.72;;;1.48;;
69956;SDS011;57283;54.816;9.482;2024-01-10T12:23:59;3.70;;;1.27;;
69956;SDS011;57283;54.816;9.482;2024-01-10T12:26:27;3.87;;;1.33;;
69956;SDS011;57283;54.816;9.482;2024-01-10T12:28:54;4.15;;;1.40;;
69956;SDS011;57283;54.816;9.482;2024-01-10T12:31:23;5.57;;;2.40;;
69956;SDS011;57283;54.816;9.482;2024-01-10T12:33:53;4.97;;;1.92;;
69956;SDS011;57283;54.816;9.482;2024-01-10T12:36:22;6.45;;;2.33;;
69956;SDS011;57283;54.816;9.482;2024-01-10T12:38:50;4.83;;;1.80;;
69956;SDS011;57283;54.816;9.482;2024-01-10T12:41:18;5.32;;;1.92;;
69956;SDS011;57283;54.816;9.482;2024-01-10T12:43:48;5.70;;;2.20;;
69956;SDS011;57283;54.816;9.482;2024-01-10T12:46:16;6.28;;;2.00;;
69956;SDS011;57283;54.816;9.482;2024-01-10T12:48:43;4.85;;;1.98;;
69956;SDS011;57283;54.816;9.482;2024-01-10T12:51:13;4.83;;;2.30;;
69956;SDS011;57283;54.816;9.482;2024-01-10T12:53:41;5.32;;;2.03;;
69956;SDS011;57283;54.816;9.482;2024-01-10T12:56:09;4.25;;;1.90;;
69956;SDS011;57283;54.816;9.482;2024-01-10T12:58:40;5.57;;;2.25;;
69956;SDS011;57283;54.816;9.482;2024-01-10T13:01:08;5.50;;;2.58;;
69956;SDS011;57283;54.816;9.482;2024-01-10T13:03:37;6.80;;;3.57;;
69956;SDS011;57283;54.816;9.482;2024-01-10T13:06:05;5.63;;;2.92;;
69956;SDS011;57283;54.816;9.482;2024-01-10T13:08:34;9.48;;;4.10;;
69956;SDS011;57283;54.816;9.482;2024-01-10T13:11:02;9.32;;;4.47;;
69956;SDS011;57283;54.816;9.482;2024-01-10T13:13:30;6.78;;;3.20;;
69956;SDS011;57283;54.816;9.482;2024-01-10T13:15:58;6.43;;;2.33;;
69956;SDS011;57283;54.816;9.482;2024-01-10T13:18:26;5.43;;;1.83;;
69956;SDS011;57283;54.816;9.482;2024-01-10T13:20:55;5.68;;;2.13;;
69956;SDS011;57283;54.816;9.482;2024-01-10T13:23:23;4.90;;;2.25;;
69956;SDS011;57283;54.816;9.482;2024-01-10T13:25:52;5.35;;;1.90;;
69956;SDS011;57283;54.816;9.482;2024-01-10T13:28:20;4.07;;;1.60;;
69956;SDS011;57283;54.816;9.482;2024-01-10T13:30:47;3.65;;;1.40;;
69956;SDS011;57283;54.816;9.482;2024-01-10T13:33:17;4.03;;;1.70;;
69956;SDS011;57283;54.816;9.482;2024-01-10T13:35:46;4.78;;;1.85;;
69956;SDS011;57283;54.816;9.482;2024-01-10T13:38:14;4.45;;;1.83;;
69956;SDS011;57283;54.816;9.482;2024-01-10T13:40:42;4.63;;;1.70;;
69956;SDS011;57283;54.816;9.482;2024-01-10T13:43:12;4.85;;;1.85;;
69956;SDS011;57283;54.816;9.482;2024-01-10T13:45:39;4.53;;;1.88;;
69956;SDS011;57283;54.816;9.482;2024-01-10T13:48:07;5.50;;;2.22;;
69956;SDS011;57283;54.816;9.482;2024-01-10T13:50:36;6.20;;;2.40;;
69956;SDS011;57283;54.816;9.482;2024-01-10T13:53:04;5.03;;;2.20;;
69956;SDS011;57283;54.816;9.482;2024-01-10T13:55:32;4.82;;;1.83;;
69956;SDS011;57283;54.816;9.482;2024-01-10T13:58:01;3.97;;;1.38;;
69956;SDS011;57283;54.816;9.482;2024-01-10T14:00:31;3.70;;;1.30;;
69956;SDS011;57283;54.816;9.482;2024-01-10T14:02:58;4.13;;;1.60;;
69956;SDS011;57283;54.816;9.482;2024-01-10T14:05:26;4.80;;;1.87;;
69956;SDS011;57283;54.816;9.482;2024-01-10T14:07:55;4.13;;;1.83;;
69956;SDS011;57283;54.816;9.482;2024-01-10T14:10:23;4.97;;;2.20;;
69956;SDS011;57283;54.816;9.482;2024-01-10T14:12:51;5.40;;;2.28;;
69956;SDS011;57283;54.816;9.482;2024-01-10T14:15:18;4.75;;;1.92;;
69956;SDS011;57283;54.816;9.482;2024-01-10T14:17:48;4.80;;;1.97;;
69956;SDS011;57283;54.816;9.482;2024-01-10T14:20:17;4.82;;;1.90;;
69956;SDS011;57283;54.816;9.482;2024-01-10T14:22:47;5.00;;;2.10;;
69956;SDS011;57283;54.816;9.482;2024-01-10T14:25:16;5.47;;;1.90;;
69956;SDS011;57283;54.816;9.482;2024-01-10T14:27:44;4.93;;;1.85;;
69956;SDS011;57283;54.816;9.482;2024-01-10T14:30:12;4.33;;;1.70;;
69956;SDS011;57283;54.816;9.482;2024-01-10T14:32:42;4.95;;;1.98;;
69956;SDS011;57283;54.816;9.482;2024-01-10T14:35:11;5.72;;;1.95;;
69956;SDS011;57283;54.816;9.482;2024-01-10T14:37:40;6.68;;;2.05;;
69956;SDS011;57283;54.816;9.482;2024-01-10T14:40:08;5.00;;;2.00;;
69956;SDS011;57283;54.816;9.482;2024-01-10T14:42:36;5.63;;;2.00;;
69956;SDS011;57283;54.816;9.482;2024-01-10T14:45:04;7.07;;;2.47;;
69956;SDS011;57283;54.816;9.482;2024-01-10T14:47:32;5.72;;;2.08;;
69956;SDS011;57283;54.816;9.482;2024-01-10T14:50:00;5.63;;;2.28;;
69956;SDS011;57283;54.816;9.482;2024-01-10T14:52:29;7.15;;;2.78;;